Flight Track Log - Related Links

Times and Time Zones

All times are in EDT time to prevent confusion due to time zone crossing. See the ASQ6115 flight status page for this flight to view local times or setup timezone preferences in your user account.

Time Position Orientation Groundspeed Altitude Reporting Facility
EDT Latitude Longitude Course Direction KTS MPH feet Rate Location/Type
Tue 07:16:15 PM 41.9667 -87.9833 346° North 184 212 3,500  Level Chicago TRACON
Tue 07:17:16 PM 41.9667 -88.0667 270° West 257 296 5,000 1,934 Climbing Chicago TRACON
Tue 07:18:16 PM 42.0500 -88.0667 360° North 308 354 7,400 2,350 Climbing Chicago TRACON
Tue 07:19:16 PM 42.1333 -88.0667 360° North 308 354 9,700 2,050 Climbing Chicago TRACON
Tue 07:20:16 PM 42.2167 -88.0500 North 323 372 11,500 1,095 Climbing Chicago TRACON
Tue 07:21:00 PM 42.4411 -88.0470 346° North  Level FlightAware Approximate
Tue 07:21:22 PM 42.3097 -88.0469 North 321 369 12,000  Level Chicago Center
Tue 07:22:24 PM 42.3969 -88.0431 North 324 373 12,000  Level Chicago Center
Tue 07:23:26 PM 42.5031 -88.0378 North 325 374 12,000  Level Chicago Center
Tue 07:24:28 PM 42.5944 -88.0328 North 328 377 12,000  Level Chicago Center
Tue 07:25:30 PM 42.6767 -88.0583 347° North 307 353 12,000  Level Chicago Center
Tue 07:26:32 PM 42.7533 -88.1103 334° Northwest 307 353 12,000 48 Level Chicago Center
Tue 07:27:34 PM 42.8311 -88.1633 333° Northwest 309 356 12,100 -48 Climbing Chicago Center
Tue 07:28:36 PM 42.9092 -88.2414 324° Northwest 349 402 11,900 -484 Descending Chicago Center
Tue 07:29:38 PM 42.9456 -88.3828 289° West 334 384 11,100 -871 Descending Chicago Center
Tue 07:30:40 PM 42.9719 -88.5142 285° West 352 405 10,100 -484 Descending Chicago Center
Tue 07:31:42 PM 42.9989 -88.6425 286° West 352 405 10,100  Level Chicago Center
Tue 07:32:44 PM 43.0286 -88.7664 288° West 341 392 10,100 -480 Level Chicago Center
Tue 07:33:47 PM 43.0625 -88.8553 298° West 266 306 9,100 -1,296 Descending Chicago Center
Tue 07:34:49 PM 43.0936 -88.9369 298° West 246 283 7,400 -1,500 Descending Chicago Center
Tue 07:35:51 PM 43.1317 -89.0275 300° West 238 274 6,000 -1,258 Descending Chicago Center
Tue 07:36:53 PM 43.1619 -89.1067 298° West 236 272 4,800 -1,268 Descending Chicago Center
Tue 07:37:54 PM 43.1925 -89.1803 300° West 229 264 3,400 -1,073 Descending Chicago Center
Tue 07:38:56 PM 43.2203 -89.2492 299° West 218 251 2,600 -774 Descending Chicago Center

Login

Don't have an account? Register now (free) for customized features, flight alerts, and more!